Wilson Algeciras — 9HA2471 — position and weather

sailwx.info

Track history (hours):
 
Tides and Currents Weather Stations Pressure Air Temp Water Temp Dewpoint Dewpoint Depression Visibility Wind Speed Wind Dir Waves Ship Positions

Wilson Algeciras

Last reported at 2016-Aug-27 09:33 UTC. Time now 2016-Aug-27 11:42 UTC.
Position N 57°18' E 020°08'.

Length 88 m; draft 4.6 m.

Type: Ship. MMSI: 248689000.

Date/timePositionNaut miles runAvg speedWind from/ knotsBaromVisibWave heightAir tempDewpointWater temp
2016-Aug-27 09:33N 57°18' E 020°08'5 4.7
2016-Aug-27 08:33N 57°20' E 020°16'10 9.2
2016-Aug-27 07:29N 57°24' E 020°32'10 9.4
2016-Aug-27 06:23N 57°29' E 020°49'  
2016-Aug-22 17:20N 55°50' E 016°01'8 9.6
2016-Aug-22 16:33N 55°46' E 015°50'10 9.5
2016-Aug-22 15:33N 55°41' E 015°35'1110.0
2016-Aug-22 14:27N 55°36' E 015°18'9 9.8
2016-Aug-22 13:34N 55°32' E 015°04'10 9.9
2016-Aug-22 12:33N 55°26' E 014°49'10 9.7
2016-Aug-22 11:33N 55°20' E 014°36'9 9.4
2016-Aug-22 10:33N 55°14' E 014°24'9 9.2
2016-Aug-22 09:33N 55°10' E 014°10'10 9.8
2016-Aug-22 08:33N 55°10' E 013°53'13 9.6
2016-Aug-22 07:14N 55°12' E 013°31'7 9.5
2016-Aug-22 06:33N 55°13' E 013°19'9 9.4
2016-Aug-22 05:33N 55°14' E 013°03'9 9.1
2016-Aug-22 04:33N 55°16' E 012°47'8 7.5
2016-Aug-22 03:33N 55°22' E 012°39'9 9.0
2016-Aug-22 02:33N 55°31' E 012°42'8 8.4
2016-Aug-22 01:34N 55°39' E 012°41'9 8.7
2016-Aug-22 00:33N 55°48' E 012°41'9 8.8
2016-Aug-21 23:34N 55°56' E 012°38'8 7.7
2016-Aug-21 22:33N 56°04' E 012°37'7 7.5
2016-Aug-21 21:33N 56°09' E 012°26'18 9.2
2016-Aug-21 19:34N 56°21' E 012°02'10 9.7
2016-Aug-21 18:33N 56°31' E 011°58'10 9.7
2016-Aug-21 17:33N 56°40' E 011°54'10 9.6
2016-Aug-21 16:33N 56°50' E 011°49'10 9.7
2016-Aug-21 15:32N 56°59' E 011°43'9 9.4
2016-Aug-21 14:33N 57°08' E 011°37'9 9.0
2016-Aug-21 13:33N 57°16' E 011°32'9 8.9
2016-Aug-21 12:33N 57°24' E 011°26'8 8.3
2016-Aug-21 11:33N 57°31' E 011°17'9 8.7
2016-Aug-21 10:33N 57°37' E 011°05'9 9.1
2016-Aug-21 09:33N 57°43' E 010°52'10 9.5
2016-Aug-21 08:33N 57°47' E 010°36'10 9.8
2016-Aug-21 07:33N 57°47' E 010°18'93 9.0
2016-Aug-20 21:09N 57°55' E 007°23'5 9.2
2016-Aug-20 20:33N 57°56' E 007°12'9 8.6
2016-Aug-20 19:34N 57°57' E 006°56'9 8.6
2016-Aug-20 18:34N 58°01' E 006°42'9 8.6
2016-Aug-20 17:29N 58°07' E 006°28'8 8.8
2016-Aug-20 16:33N 58°13' E 006°19'8 7.9
2016-Aug-20 15:33N 58°20' E 006°10'8 7.8
2016-Aug-20 14:33N 58°23' E 005°57'5 4.6
2016-Aug-20 13:34N 58°28' E 005°55'0 0.2
2016-Aug-20 12:16N 58°28' E 005°55'0 0.0
2016-Aug-20 09:22N 58°28' E 005°55'0 0.0
2016-Aug-20 08:22N 58°28' E 005°55'0 0.0
2016-Aug-20 05:22N 58°28' E 005°55'0 0.2
2016-Aug-20 04:33N 58°28' E 005°55'4 3.6
2016-Aug-20 03:33N 58°24' E 005°53'7 7.5
2016-Aug-20 02:33N 58°20' E 006°05'8 7.5
2016-Aug-20 01:32N 58°14' E 006°14'7 7.0
2016-Aug-20 00:32N 58°07' E 006°15'6 6.0
2016-Aug-19 23:33N 58°01' E 006°15'8 8.0
2016-Aug-19 22:33N 57°53' E 006°16'7 7.3
2016-Aug-19 21:33N 57°46' E 006°17'8 7.8
2016-Aug-19 20:33N 57°38' E 006°18'8 7.9
2016-Aug-19 19:32N 57°30' E 006°19'8 8.0
2016-Aug-19 18:33N 57°22' E 006°20'8 8.2
2016-Aug-19 17:34N 57°14' E 006°21'28 8.1
2016-Aug-19 14:03N 56°46' E 006°29'4 7.9
2016-Aug-19 13:33N 56°42' E 006°31'9 8.6
2016-Aug-19 12:33N 56°34' E 006°35'8 8.3
2016-Aug-19 11:33N 56°26' E 006°38'40 9.9
2016-Aug-19 07:33N 55°47' E 006°51'1110.1
2016-Aug-19 06:26N 55°36' E 006°55'910.4
2016-Aug-19 05:33N 55°27' E 006°57'1110.5
2016-Aug-19 04:33N 55°17' E 007°01'1110.7
2016-Aug-19 03:33N 55°06' E 007°04'1110.8
2016-Aug-19 02:33N 54°56' E 007°08'1110.8
2016-Aug-19 01:33N 54°45' E 007°13'1110.7
2016-Aug-19 00:33N 54°35' E 007°18'1010.3
2016-Aug-18 23:33N 54°25' E 007°22'10 9.9
2016-Aug-18 22:33N 54°15' E 007°27'9 9.5
2016-Aug-18 21:33N 54°07' E 007°33'10 9.5
2016-Aug-18 20:33N 53°58' E 007°41'8 8.4
2016-Aug-18 19:33N 53°53' E 007°51'9 9.1
2016-Aug-18 18:33N 53°50' E 008°06'1411.1
2016-Aug-18 17:20N 53°40' E 008°23'1012.7
2016-Aug-18 16:33N 53°33' E 008°34'2 1.5
2016-Aug-18 15:23N 53°31' E 008°33'0 0.0
2016-Aug-18 11:05N 53°31' E 008°33'0 0.0
2016-Aug-18 10:26N 53°31' E 008°33'0 0.0
2016-Aug-18 09:26N 53°31' E 008°33'0 0.1
2016-Aug-18 07:32N 53°31' E 008°33'0 0.1
2016-Aug-18 06:14N 53°31' E 008°33'0 0.0
2016-Aug-18 05:29N 53°31' E 008°33'0 0.0
2016-Aug-18 04:32N 53°31' E 008°33'0 0.0
2016-Aug-18 03:32N 53°31' E 008°33'0 0.0
2016-Aug-18 02:32N 53°31' E 008°33'0 0.1
2016-Aug-18 01:29N 53°31' E 008°33'0 0.0
2016-Aug-17 22:17N 53°31' E 008°33'  
Track history (hours):
 
Tides and Currents Weather Stations Pressure Air Temp Water Temp Dewpoint Dewpoint Depression Visibility Wind Speed Wind Dir Waves Ship Positions

Wilson Algeciras

Last reported at 2016-Aug-27 09:33 UTC. Time now 2016-Aug-27 11:42 UTC.
Position N 57°18' E 020°08'.

Length 88 m; draft 4.6 m.

Type: Ship. MMSI: 248689000.

Date/timePositionNaut miles runAvg speedWind from/ knotsBaromVisibWave heightAir tempDewpointWater temp
2016-Aug-27 09:33N 57°18' E 020°08'5 4.7
2016-Aug-27 08:33N 57°20' E 020°16'10 9.2
2016-Aug-27 07:29N 57°24' E 020°32'10 9.4
2016-Aug-27 06:23N 57°29' E 020°49'  
2016-Aug-22 17:20N 55°50' E 016°01'8 9.6
2016-Aug-22 16:33N 55°46' E 015°50'10 9.5
2016-Aug-22 15:33N 55°41' E 015°35'1110.0
2016-Aug-22 14:27N 55°36' E 015°18'9 9.8
2016-Aug-22 13:34N 55°32' E 015°04'10 9.9
2016-Aug-22 12:33N 55°26' E 014°49'10 9.7
2016-Aug-22 11:33N 55°20' E 014°36'9 9.4
2016-Aug-22 10:33N 55°14' E 014°24'9 9.2
2016-Aug-22 09:33N 55°10' E 014°10'10 9.8
2016-Aug-22 08:33N 55°10' E 013°53'13 9.6
2016-Aug-22 07:14N 55°12' E 013°31'7 9.5
2016-Aug-22 06:33N 55°13' E 013°19'9 9.4
2016-Aug-22 05:33N 55°14' E 013°03'9 9.1
2016-Aug-22 04:33N 55°16' E 012°47'8 7.5
2016-Aug-22 03:33N 55°22' E 012°39'9 9.0
2016-Aug-22 02:33N 55°31' E 012°42'8 8.4
2016-Aug-22 01:34N 55°39' E 012°41'9 8.7
2016-Aug-22 00:33N 55°48' E 012°41'9 8.8
2016-Aug-21 23:34N 55°56' E 012°38'8 7.7
2016-Aug-21 22:33N 56°04' E 012°37'7 7.5
2016-Aug-21 21:33N 56°09' E 012°26'18 9.2
2016-Aug-21 19:34N 56°21' E 012°02'10 9.7
2016-Aug-21 18:33N 56°31' E 011°58'10 9.7
2016-Aug-21 17:33N 56°40' E 011°54'10 9.6
2016-Aug-21 16:33N 56°50' E 011°49'10 9.7
2016-Aug-21 15:32N 56°59' E 011°43'9 9.4
2016-Aug-21 14:33N 57°08' E 011°37'9 9.0
2016-Aug-21 13:33N 57°16' E 011°32'9 8.9
2016-Aug-21 12:33N 57°24' E 011°26'8 8.3
2016-Aug-21 11:33N 57°31' E 011°17'9 8.7
2016-Aug-21 10:33N 57°37' E 011°05'9 9.1
2016-Aug-21 09:33N 57°43' E 010°52'10 9.5
2016-Aug-21 08:33N 57°47' E 010°36'10 9.8
2016-Aug-21 07:33N 57°47' E 010°18'93 9.0
2016-Aug-20 21:09N 57°55' E 007°23'5 9.2
2016-Aug-20 20:33N 57°56' E 007°12'9 8.6
2016-Aug-20 19:34N 57°57' E 006°56'9 8.6
2016-Aug-20 18:34N 58°01' E 006°42'9 8.6
2016-Aug-20 17:29N 58°07' E 006°28'8 8.8
2016-Aug-20 16:33N 58°13' E 006°19'8 7.9
2016-Aug-20 15:33N 58°20' E 006°10'8 7.8
2016-Aug-20 14:33N 58°23' E 005°57'5 4.6
2016-Aug-20 13:34N 58°28' E 005°55'0 0.2
2016-Aug-20 12:16N 58°28' E 005°55'0 0.0
2016-Aug-20 09:22N 58°28' E 005°55'0 0.0
2016-Aug-20 08:22N 58°28' E 005°55'0 0.0
2016-Aug-20 05:22N 58°28' E 005°55'0 0.2
2016-Aug-20 04:33N 58°28' E 005°55'4 3.6
2016-Aug-20 03:33N 58°24' E 005°53'7 7.5
2016-Aug-20 02:33N 58°20' E 006°05'8 7.5
2016-Aug-20 01:32N 58°14' E 006°14'7 7.0
2016-Aug-20 00:32N 58°07' E 006°15'6 6.0
2016-Aug-19 23:33N 58°01' E 006°15'8 8.0
2016-Aug-19 22:33N 57°53' E 006°16'7 7.3
2016-Aug-19 21:33N 57°46' E 006°17'8 7.8
2016-Aug-19 20:33N 57°38' E 006°18'8 7.9
2016-Aug-19 19:32N 57°30' E 006°19'8 8.0
2016-Aug-19 18:33N 57°22' E 006°20'8 8.2
2016-Aug-19 17:34N 57°14' E 006°21'28 8.1
2016-Aug-19 14:03N 56°46' E 006°29'4 7.9
2016-Aug-19 13:33N 56°42' E 006°31'9 8.6
2016-Aug-19 12:33N 56°34' E 006°35'8 8.3
2016-Aug-19 11:33N 56°26' E 006°38'40 9.9
2016-Aug-19 07:33N 55°47' E 006°51'1110.1
2016-Aug-19 06:26N 55°36' E 006°55'910.4
2016-Aug-19 05:33N 55°27' E 006°57'1110.5
2016-Aug-19 04:33N 55°17' E 007°01'1110.7
2016-Aug-19 03:33N 55°06' E 007°04'1110.8
2016-Aug-19 02:33N 54°56' E 007°08'1110.8
2016-Aug-19 01:33N 54°45' E 007°13'1110.7
2016-Aug-19 00:33N 54°35' E 007°18'1010.3
2016-Aug-18 23:33N 54°25' E 007°22'10 9.9
2016-Aug-18 22:33N 54°15' E 007°27'9 9.5
2016-Aug-18 21:33N 54°07' E 007°33'10 9.5
2016-Aug-18 20:33N 53°58' E 007°41'8 8.4
2016-Aug-18 19:33N 53°53' E 007°51'9 9.1
2016-Aug-18 18:33N 53°50' E 008°06'1411.1
2016-Aug-18 17:20N 53°40' E 008°23'1012.7
2016-Aug-18 16:33N 53°33' E 008°34'2 1.5
2016-Aug-18 15:23N 53°31' E 008°33'0 0.0
2016-Aug-18 11:05N 53°31' E 008°33'0 0.0
2016-Aug-18 10:26N 53°31' E 008°33'0 0.0
2016-Aug-18 09:26N 53°31' E 008°33'0 0.1
2016-Aug-18 07:32N 53°31' E 008°33'0 0.1
2016-Aug-18 06:14N 53°31' E 008°33'0 0.0
2016-Aug-18 05:29N 53°31' E 008°33'0 0.0
2016-Aug-18 04:32N 53°31' E 008°33'0 0.0
2016-Aug-18 03:32N 53°31' E 008°33'0 0.0
2016-Aug-18 02:32N 53°31' E 008°33'0 0.1
2016-Aug-18 01:29N 53°31' E 008°33'0 0.0
2016-Aug-17 22:17N 53°31' E 008°33'  

Dump ship's entire track history